Terminal Aerodrome Forecast
Issued by NWS

Home | Current Version | Previous Version | Text Only | Print | Product List | Glossary On
Versions: 1 2 3 4 5 6 7 8 9 10 11 12 13 14 15 16 17 18 19 20 21 22
000
FTPA31 PHFO 261120
TAFHOG
TAF
PHOG 261120Z 2612/2712 05011G18KT P6SM FEW030 SCT050
     FM262100 05020G30KT P6SM FEW030 SCT050
     FM270900 05009KT P6SM FEW030 SCT050
      AMD LTD TO VIS AND WIND TIL 261600=

USA.gov is the U.S. government's official web portal to all federal, state and local government web resources and services.